This is the latest recevied weather packets stored in our database for station/object Waldburg. If no packets are shown the sender has not sent any weather packets the latest 10 day(s).
| Time | Temp. | Humidity | Pressure | Rain* | Wind** | Luminosity | Snow |
|---|---|---|---|---|---|---|---|
| 1778198529 | 7.78° C | 88% | 1014.2 hPa | 0 mm | - | - | - |
| 1778196729 | 8.33° C | 87% | 1014.4 hPa | 0 mm | - | - | - |
| 1778194935 | 8.33° C | 87% | 1014.6 hPa | 0 mm | - | - | - |
| 1778193130 | 8.33° C | 87% | 1014.9 hPa | 0 mm | - | - | - |
| 1778191329 | 8.89° C | 86% | 1015.1 hPa | 0 mm | - | - | - |
| 1778189531 | 8.89° C | 85% | 1014.9 hPa | 2.29 mm | - | - | - |
| 1778187730 | 9.44° C | 84% | 1014.8 hPa | 2.29 mm | - | - | - |
| 1778185929 | 10° C | 83% | 1014.8 hPa | 2.29 mm | - | - | - |
| 1778184129 | 10.56° C | 81% | 1014.9 hPa | 2.29 mm | - | - | - |
| 1778182330 | 10.56° C | 79% | 1014.5 hPa | 2.29 mm | - | - | - |
| 1778180532 | 11.11° C | 77% | 1014.1 hPa | 2.29 mm | - | - | - |
| 1778178730 | 11.67° C | 72% | 1013.9 hPa | 2.29 mm | - | - | - |
| 1778176930 | 12.22° C | 73% | 1013.6 hPa | 2.29 mm | - | - | - |
| 1778175130 | 12.78° C | 72% | 1013.5 hPa | 2.29 mm | - | - | - |
| 1778173330 | 13.33° C | 70% | 1013.4 hPa | 2.29 mm | - | - | - |
| 1778171530 | 13.89° C | 67% | 1013.5 hPa | 2.29 mm | - | - | - |
| 1778169731 | 14.44° C | 66% | 1013.5 hPa | 2.29 mm | - | - | - |
| 1778167931 | 15° C | 65% | 1013.5 hPa | 2.29 mm | - | - | - |
| 1778166130 | 15° C | 70% | 1013.3 hPa | 2.29 mm | - | - | - |
| 1778164332 | 15° C | 68% | 1013.3 hPa | 2.29 mm | - | - | - |
| 1778162530 | 15° C | 66% | 1013.2 hPa | 2.29 mm | - | - | - |
| 1778160730 | 13.89° C | 70% | 1013.7 hPa | 2.29 mm | - | - | - |
| 1778158930 | 13.33° C | 74% | 1013.8 hPa | 2.29 mm | - | - | - |
| 1778157130 | 13.33° C | 74% | 1013.7 hPa | 2.29 mm | - | - | - |
| 1778155331 | 13.33° C | 75% | 1013.8 hPa | 2.29 mm | - | - | - |
* Rain since midnight (hover to see other rain measurements)
** Current wind speed in m/s (hover to see current wind gust speed)